sensor_id;sensor_type;location;lat;lon;timestamp;P1;durP1;ratioP1;P2;durP2;ratioP2
14923;SDS011;7554;43.600;1.480;2023-10-09T00:02:05;5.23;;;3.83;;
14923;SDS011;7554;43.600;1.480;2023-10-09T00:04:35;6.07;;;4.13;;
14923;SDS011;7554;43.600;1.480;2023-10-09T00:07:06;6.83;;;4.17;;
14923;SDS011;7554;43.600;1.480;2023-10-09T00:09:36;8.67;;;3.93;;
14923;SDS011;7554;43.600;1.480;2023-10-09T00:12:12;7.90;;;4.23;;
14923;SDS011;7554;43.600;1.480;2023-10-09T00:14:42;8.33;;;4.13;;
14923;SDS011;7554;43.600;1.480;2023-10-09T00:17:14;5.63;;;3.63;;
14923;SDS011;7554;43.600;1.480;2023-10-09T00:19:44;10.73;;;4.23;;
14923;SDS011;7554;43.600;1.480;2023-10-09T00:22:15;7.73;;;3.90;;
14923;SDS011;7554;43.600;1.480;2023-10-09T00:24:51;7.67;;;4.47;;
14923;SDS011;7554;43.600;1.480;2023-10-09T00:27:36;5.97;;;3.70;;
14923;SDS011;7554;43.600;1.480;2023-10-09T00:30:09;6.57;;;4.07;;
14923;SDS011;7554;43.600;1.480;2023-10-09T00:32:40;7.27;;;3.70;;
14923;SDS011;7554;43.600;1.480;2023-10-09T00:35:15;7.97;;;4.50;;
14923;SDS011;7554;43.600;1.480;2023-10-09T00:38:15;5.93;;;4.37;;
14923;SDS011;7554;43.600;1.480;2023-10-09T00:40:49;6.50;;;4.30;;
14923;SDS011;7554;43.600;1.480;2023-10-09T00:43:28;4.77;;;3.67;;
14923;SDS011;7554;43.600;1.480;2023-10-09T00:45:59;10.40;;;4.57;;
14923;SDS011;7554;43.600;1.480;2023-10-09T00:48:37;5.53;;;4.03;;
14923;SDS011;7554;43.600;1.480;2023-10-09T00:51:06;5.90;;;4.00;;
14923;SDS011;7554;43.600;1.480;2023-10-09T00:53:42;9.03;;;4.40;;
14923;SDS011;7554;43.600;1.480;2023-10-09T00:56:14;6.63;;;3.70;;
14923;SDS011;7554;43.600;1.480;2023-10-09T00:58:46;7.67;;;4.40;;
14923;SDS011;7554;43.600;1.480;2023-10-09T01:01:22;5.63;;;4.10;;
14923;SDS011;7554;43.600;1.480;2023-10-09T01:03:59;7.60;;;3.90;;
14923;SDS011;7554;43.600;1.480;2023-10-09T01:06:35;8.73;;;4.20;;
14923;SDS011;7554;43.600;1.480;2023-10-09T01:09:09;6.40;;;3.90;;
14923;SDS011;7554;43.600;1.480;2023-10-09T01:11:39;6.57;;;3.90;;
14923;SDS011;7554;43.600;1.480;2023-10-09T01:14:28;7.00;;;4.03;;
14923;SDS011;7554;43.600;1.480;2023-10-09T01:16:57;5.37;;;3.87;;
14923;SDS011;7554;43.600;1.480;2023-10-09T01:19:26;6.13;;;4.03;;
14923;SDS011;7554;43.600;1.480;2023-10-09T01:21:56;4.53;;;3.50;;
14923;SDS011;7554;43.600;1.480;2023-10-09T01:24:31;10.37;;;3.90;;
14923;SDS011;7554;43.600;1.480;2023-10-09T01:27:01;5.97;;;3.90;;
14923;SDS011;7554;43.600;1.480;2023-10-09T01:29:30;7.20;;;4.30;;
14923;SDS011;7554;43.600;1.480;2023-10-09T01:32:00;5.40;;;3.90;;
14923;SDS011;7554;43.600;1.480;2023-10-09T01:34:30;6.30;;;3.73;;
14923;SDS011;7554;43.600;1.480;2023-10-09T01:37:07;8.83;;;4.40;;
14923;SDS011;7554;43.600;1.480;2023-10-09T01:39:39;6.97;;;3.80;;
14923;SDS011;7554;43.600;1.480;2023-10-09T01:42:07;7.23;;;4.27;;
14923;SDS011;7554;43.600;1.480;2023-10-09T01:44:35;6.20;;;3.70;;
14923;SDS011;7554;43.600;1.480;2023-10-09T01:47:08;5.20;;;3.83;;
14923;SDS011;7554;43.600;1.480;2023-10-09T01:49:39;5.87;;;4.07;;
14923;SDS011;7554;43.600;1.480;2023-10-09T01:52:08;6.07;;;3.80;;
14923;SDS011;7554;43.600;1.480;2023-10-09T01:54:42;6.50;;;3.93;;
14923;SDS011;7554;43.600;1.480;2023-10-09T01:57:12;7.47;;;4.00;;
14923;SDS011;7554;43.600;1.480;2023-10-09T01:59:41;6.60;;;3.90;;
14923;SDS011;7554;43.600;1.480;2023-10-09T02:02:14;6.90;;;3.73;;
14923;SDS011;7554;43.600;1.480;2023-10-09T02:04:51;7.73;;;4.13;;
14923;SDS011;7554;43.600;1.480;2023-10-09T02:07:20;8.10;;;4.50;;
14923;SDS011;7554;43.600;1.480;2023-10-09T02:09:55;7.43;;;4.30;;
14923;SDS011;7554;43.600;1.480;2023-10-09T02:12:23;6.23;;;3.87;;
14923;SDS011;7554;43.600;1.480;2023-10-09T02:14:58;6.27;;;3.50;;
14923;SDS011;7554;43.600;1.480;2023-10-09T02:17:31;6.83;;;4.20;;
14923;SDS011;7554;43.600;1.480;2023-10-09T02:19:59;5.67;;;3.73;;
14923;SDS011;7554;43.600;1.480;2023-10-09T02:22:41;8.63;;;4.73;;
14923;SDS011;7554;43.600;1.480;2023-10-09T02:25:10;6.33;;;4.13;;
14923;SDS011;7554;43.600;1.480;2023-10-09T02:27:38;8.73;;;4.30;;
14923;SDS011;7554;43.600;1.480;2023-10-09T02:30:19;8.17;;;3.80;;
14923;SDS011;7554;43.600;1.480;2023-10-09T02:32:52;5.80;;;4.00;;
14923;SDS011;7554;43.600;1.480;2023-10-09T02:35:32;5.40;;;3.67;;
14923;SDS011;7554;43.600;1.480;2023-10-09T02:38:08;5.80;;;3.70;;
14923;SDS011;7554;43.600;1.480;2023-10-09T02:40:41;6.13;;;3.97;;
14923;SDS011;7554;43.600;1.480;2023-10-09T02:43:32;7.10;;;4.20;;
14923;SDS011;7554;43.600;1.480;2023-10-09T02:46:09;7.73;;;4.33;;
14923;SDS011;7554;43.600;1.480;2023-10-09T02:48:39;5.90;;;3.80;;
14923;SDS011;7554;43.600;1.480;2023-10-09T02:51:10;4.67;;;3.60;;
14923;SDS011;7554;43.600;1.480;2023-10-09T02:53:47;5.73;;;3.80;;
14923;SDS011;7554;43.600;1.480;2023-10-09T02:56:18;5.40;;;3.87;;
14923;SDS011;7554;43.600;1.480;2023-10-09T02:58:50;7.37;;;4.00;;
14923;SDS011;7554;43.600;1.480;2023-10-09T03:01:17;7.33;;;4.03;;
14923;SDS011;7554;43.600;1.480;2023-10-09T03:03:45;6.03;;;3.37;;
14923;SDS011;7554;43.600;1.480;2023-10-09T03:06:13;6.70;;;3.90;;
14923;SDS011;7554;43.600;1.480;2023-10-09T03:08:51;5.80;;;4.20;;
14923;SDS011;7554;43.600;1.480;2023-10-09T03:11:21;10.57;;;4.30;;
14923;SDS011;7554;43.600;1.480;2023-10-09T03:13:48;7.43;;;3.93;;
14923;SDS011;7554;43.600;1.480;2023-10-09T03:16:18;15.90;;;6.07;;
14923;SDS011;7554;43.600;1.480;2023-10-09T03:18:46;7.53;;;4.10;;
14923;SDS011;7554;43.600;1.480;2023-10-09T03:21:13;7.03;;;4.67;;
14923;SDS011;7554;43.600;1.480;2023-10-09T03:23:42;7.63;;;4.40;;
14923;SDS011;7554;43.600;1.480;2023-10-09T03:26:10;6.70;;;4.53;;
14923;SDS011;7554;43.600;1.480;2023-10-09T03:28:39;5.63;;;3.90;;
14923;SDS011;7554;43.600;1.480;2023-10-09T03:31:08;5.77;;;3.93;;
14923;SDS011;7554;43.600;1.480;2023-10-09T03:33:35;6.10;;;3.90;;
14923;SDS011;7554;43.600;1.480;2023-10-09T03:36:03;7.00;;;4.20;;
14923;SDS011;7554;43.600;1.480;2023-10-09T03:38:34;7.43;;;4.57;;
14923;SDS011;7554;43.600;1.480;2023-10-09T03:41:02;7.07;;;4.70;;
14923;SDS011;7554;43.600;1.480;2023-10-09T03:43:32;6.13;;;4.37;;
14923;SDS011;7554;43.600;1.480;2023-10-09T03:46:04;7.27;;;4.27;;
14923;SDS011;7554;43.600;1.480;2023-10-09T03:48:40;6.60;;;4.70;;
14923;SDS011;7554;43.600;1.480;2023-10-09T03:51:08;8.77;;;4.43;;
14923;SDS011;7554;43.600;1.480;2023-10-09T03:53:36;13.50;;;4.63;;
14923;SDS011;7554;43.600;1.480;2023-10-09T03:56:04;8.73;;;4.17;;
14923;SDS011;7554;43.600;1.480;2023-10-09T03:58:37;6.33;;;4.50;;
14923;SDS011;7554;43.600;1.480;2023-10-09T04:01:09;6.43;;;4.20;;
14923;SDS011;7554;43.600;1.480;2023-10-09T04:03:43;6.10;;;4.57;;
14923;SDS011;7554;43.600;1.480;2023-10-09T04:06:10;6.30;;;4.37;;
14923;SDS011;7554;43.600;1.480;2023-10-09T04:08:38;6.77;;;4.00;;
14923;SDS011;7554;43.600;1.480;2023-10-09T04:11:12;6.93;;;4.43;;
14923;SDS011;7554;43.600;1.480;2023-10-09T04:13:43;10.17;;;4.50;;
14923;SDS011;7554;43.600;1.480;2023-10-09T04:16:13;6.97;;;4.53;;
14923;SDS011;7554;43.600;1.480;2023-10-09T04:19:01;10.53;;;4.80;;
14923;SDS011;7554;43.600;1.480;2023-10-09T04:21:36;6.60;;;4.53;;
14923;SDS011;7554;43.600;1.480;2023-10-09T04:24:03;6.77;;;4.43;;
14923;SDS011;7554;43.600;1.480;2023-10-09T04:26:50;6.33;;;4.13;;
14923;SDS011;7554;43.600;1.480;2023-10-09T04:29:22;8.13;;;4.40;;
14923;SDS011;7554;43.600;1.480;2023-10-09T04:31:54;7.00;;;4.73;;
14923;SDS011;7554;43.600;1.480;2023-10-09T04:34:25;7.30;;;4.57;;
14923;SDS011;7554;43.600;1.480;2023-10-09T04:37:00;12.53;;;4.57;;
14923;SDS011;7554;43.600;1.480;2023-10-09T04:39:45;6.53;;;4.60;;
14923;SDS011;7554;43.600;1.480;2023-10-09T04:42:35;6.40;;;4.30;;
14923;SDS011;7554;43.600;1.480;2023-10-09T04:45:03;6.87;;;4.60;;
14923;SDS011;7554;43.600;1.480;2023-10-09T04:48:02;6.13;;;4.30;;
14923;SDS011;7554;43.600;1.480;2023-10-09T04:50:34;11.00;;;4.90;;
14923;SDS011;7554;43.600;1.480;2023-10-09T04:53:43;6.63;;;4.67;;
14923;SDS011;7554;43.600;1.480;2023-10-09T04:56:15;8.67;;;4.57;;
14923;SDS011;7554;43.600;1.480;2023-10-09T04:58:42;6.57;;;3.97;;
14923;SDS011;7554;43.600;1.480;2023-10-09T05:01:13;8.63;;;4.47;;
14923;SDS011;7554;43.600;1.480;2023-10-09T05:04:02;7.37;;;4.60;;
14923;SDS011;7554;43.600;1.480;2023-10-09T05:06:40;5.73;;;4.47;;
14923;SDS011;7554;43.600;1.480;2023-10-09T05:09:20;7.87;;;4.33;;
14923;SDS011;7554;43.600;1.480;2023-10-09T05:11:47;8.37;;;4.20;;
14923;SDS011;7554;43.600;1.480;2023-10-09T05:14:40;7.20;;;4.50;;
14923;SDS011;7554;43.600;1.480;2023-10-09T05:17:26;8.80;;;4.17;;
14923;SDS011;7554;43.600;1.480;2023-10-09T05:19:55;6.30;;;4.27;;
14923;SDS011;7554;43.600;1.480;2023-10-09T05:22:41;9.80;;;4.70;;
14923;SDS011;7554;43.600;1.480;2023-10-09T05:25:22;6.47;;;4.53;;
14923;SDS011;7554;43.600;1.480;2023-10-09T05:28:04;5.70;;;4.10;;
14923;SDS011;7554;43.600;1.480;2023-10-09T05:30:45;6.80;;;4.40;;
14923;SDS011;7554;43.600;1.480;2023-10-09T05:33:20;6.27;;;4.50;;
14923;SDS011;7554;43.600;1.480;2023-10-09T05:36:00;7.47;;;4.90;;
14923;SDS011;7554;43.600;1.480;2023-10-09T05:38:40;8.57;;;4.73;;
14923;SDS011;7554;43.600;1.480;2023-10-09T05:41:11;11.37;;;4.83;;
14923;SDS011;7554;43.600;1.480;2023-10-09T05:43:52;7.20;;;4.17;;
14923;SDS011;7554;43.600;1.480;2023-10-09T05:46:37;7.20;;;4.03;;
14923;SDS011;7554;43.600;1.480;2023-10-09T05:49:23;7.77;;;4.50;;
14923;SDS011;7554;43.600;1.480;2023-10-09T05:51:59;5.30;;;4.27;;
14923;SDS011;7554;43.600;1.480;2023-10-09T05:54:46;7.80;;;4.97;;
14923;SDS011;7554;43.600;1.480;2023-10-09T05:57:31;7.90;;;4.50;;
14923;SDS011;7554;43.600;1.480;2023-10-09T06:00:13;7.77;;;4.90;;
14923;SDS011;7554;43.600;1.480;2023-10-09T06:02:58;13.33;;;5.10;;
14923;SDS011;7554;43.600;1.480;2023-10-09T06:05:48;8.10;;;5.20;;
14923;SDS011;7554;43.600;1.480;2023-10-09T06:08:29;7.23;;;4.73;;
14923;SDS011;7554;43.600;1.480;2023-10-09T06:11:11;10.80;;;5.00;;
14923;SDS011;7554;43.600;1.480;2023-10-09T06:13:53;7.87;;;4.40;;
14923;SDS011;7554;43.600;1.480;2023-10-09T06:16:28;7.83;;;4.73;;
14923;SDS011;7554;43.600;1.480;2023-10-09T06:19:06;6.40;;;4.40;;
14923;SDS011;7554;43.600;1.480;2023-10-09T06:21:37;6.30;;;4.10;;
14923;SDS011;7554;43.600;1.480;2023-10-09T06:24:22;7.57;;;4.77;;
14923;SDS011;7554;43.600;1.480;2023-10-09T06:26:58;5.27;;;3.90;;
14923;SDS011;7554;43.600;1.480;2023-10-09T06:29:52;7.43;;;3.93;;
14923;SDS011;7554;43.600;1.480;2023-10-09T06:32:34;6.87;;;4.30;;
14923;SDS011;7554;43.600;1.480;2023-10-09T06:35:02;12.67;;;5.07;;
14923;SDS011;7554;43.600;1.480;2023-10-09T06:37:42;7.20;;;3.70;;
14923;SDS011;7554;43.600;1.480;2023-10-09T06:40:25;10.17;;;4.70;;
14923;SDS011;7554;43.600;1.480;2023-10-09T06:43:09;8.60;;;4.40;;
14923;SDS011;7554;43.600;1.480;2023-10-09T06:45:42;11.17;;;4.77;;
14923;SDS011;7554;43.600;1.480;2023-10-09T06:48:19;7.83;;;4.80;;
14923;SDS011;7554;43.600;1.480;2023-10-09T06:51:09;12.98;;;5.20;;
14923;SDS011;7554;43.600;1.480;2023-10-09T06:53:48;8.40;;;4.90;;
14923;SDS011;7554;43.600;1.480;2023-10-09T06:56:36;11.20;;;4.37;;
14923;SDS011;7554;43.600;1.480;2023-10-09T06:59:29;7.83;;;4.33;;
14923;SDS011;7554;43.600;1.480;2023-10-09T07:02:08;14.03;;;4.60;;
14923;SDS011;7554;43.600;1.480;2023-10-09T07:04:51;13.37;;;5.30;;
14923;SDS011;7554;43.600;1.480;2023-10-09T07:07:21;13.20;;;4.90;;
14923;SDS011;7554;43.600;1.480;2023-10-09T07:09:50;9.80;;;4.70;;
14923;SDS011;7554;43.600;1.480;2023-10-09T07:12:37;12.67;;;5.27;;
14923;SDS011;7554;43.600;1.480;2023-10-09T07:15:09;10.07;;;4.60;;
14923;SDS011;7554;43.600;1.480;2023-10-09T07:17:54;10.33;;;5.27;;
14923;SDS011;7554;43.600;1.480;2023-10-09T07:20:41;9.90;;;5.10;;
14923;SDS011;7554;43.600;1.480;2023-10-09T07:23:24;10.57;;;4.87;;
14923;SDS011;7554;43.600;1.480;2023-10-09T07:26:00;15.17;;;4.90;;
14923;SDS011;7554;43.600;1.480;2023-10-09T07:28:45;13.10;;;5.23;;
14923;SDS011;7554;43.600;1.480;2023-10-09T07:31:17;16.40;;;5.80;;
14923;SDS011;7554;43.600;1.480;2023-10-09T07:34:04;14.97;;;5.30;;
14923;SDS011;7554;43.600;1.480;2023-10-09T07:36:53;11.30;;;5.17;;
14923;SDS011;7554;43.600;1.480;2023-10-09T07:39:22;14.53;;;6.20;;
14923;SDS011;7554;43.600;1.480;2023-10-09T07:41:58;8.67;;;5.37;;
14923;SDS011;7554;43.600;1.480;2023-10-09T07:44:41;11.93;;;5.17;;
14923;SDS011;7554;43.600;1.480;2023-10-09T07:47:18;11.87;;;5.40;;
14923;SDS011;7554;43.600;1.480;2023-10-09T07:50:05;10.90;;;5.03;;
14923;SDS011;7554;43.600;1.480;2023-10-09T07:52:36;15.57;;;5.33;;
14923;SDS011;7554;43.600;1.480;2023-10-09T07:55:08;11.23;;;5.57;;
14923;SDS011;7554;43.600;1.480;2023-10-09T07:57:51;17.43;;;5.27;;
14923;SDS011;7554;43.600;1.480;2023-10-09T08:00:20;9.17;;;4.90;;
14923;SDS011;7554;43.600;1.480;2023-10-09T08:03:23;10.60;;;5.00;;
14923;SDS011;7554;43.600;1.480;2023-10-09T08:05:50;10.20;;;4.93;;
14923;SDS011;7554;43.600;1.480;2023-10-09T08:08:32;12.83;;;5.20;;
14923;SDS011;7554;43.600;1.480;2023-10-09T08:11:28;9.37;;;4.70;;
14923;SDS011;7554;43.600;1.480;2023-10-09T08:14:25;7.73;;;4.43;;
14923;SDS011;7554;43.600;1.480;2023-10-09T08:17:12;11.27;;;4.90;;
14923;SDS011;7554;43.600;1.480;2023-10-09T08:19:42;9.70;;;4.63;;
14923;SDS011;7554;43.600;1.480;2023-10-09T08:22:26;7.07;;;4.97;;
14923;SDS011;7554;43.600;1.480;2023-10-09T08:25:10;7.50;;;4.80;;
14923;SDS011;7554;43.600;1.480;2023-10-09T08:27:57;13.93;;;5.33;;
14923;SDS011;7554;43.600;1.480;2023-10-09T08:30:45;11.27;;;4.63;;
14923;SDS011;7554;43.600;1.480;2023-10-09T08:33:30;9.07;;;5.00;;
14923;SDS011;7554;43.600;1.480;2023-10-09T08:36:06;7.03;;;4.47;;
14923;SDS011;7554;43.600;1.480;2023-10-09T08:38:34;11.97;;;4.60;;
14923;SDS011;7554;43.600;1.480;2023-10-09T08:41:09;6.70;;;4.60;;
14923;SDS011;7554;43.600;1.480;2023-10-09T08:43:48;12.63;;;4.40;;
14923;SDS011;7554;43.600;1.480;2023-10-09T08:46:18;10.47;;;4.90;;
14923;SDS011;7554;43.600;1.480;2023-10-09T08:48:48;10.87;;;4.70;;
14923;SDS011;7554;43.600;1.480;2023-10-09T08:51:17;9.57;;;4.87;;
14923;SDS011;7554;43.600;1.480;2023-10-09T08:53:46;13.83;;;4.83;;
14923;SDS011;7554;43.600;1.480;2023-10-09T08:56:13;8.90;;;4.30;;
14923;SDS011;7554;43.600;1.480;2023-10-09T08:58:47;11.60;;;4.50;;
14923;SDS011;7554;43.600;1.480;2023-10-09T09:01:16;10.47;;;4.53;;
14923;SDS011;7554;43.600;1.480;2023-10-09T09:03:46;11.63;;;4.47;;
14923;SDS011;7554;43.600;1.480;2023-10-09T09:06:15;11.10;;;4.80;;
14923;SDS011;7554;43.600;1.480;2023-10-09T09:08:45;12.13;;;4.63;;
14923;SDS011;7554;43.600;1.480;2023-10-09T09:11:13;14.97;;;4.50;;
14923;SDS011;7554;43.600;1.480;2023-10-09T09:13:43;11.83;;;4.60;;
14923;SDS011;7554;43.600;1.480;2023-10-09T09:16:18;10.77;;;4.50;;
14923;SDS011;7554;43.600;1.480;2023-10-09T09:18:52;10.33;;;5.03;;
14923;SDS011;7554;43.600;1.480;2023-10-09T09:21:26;13.83;;;4.57;;
14923;SDS011;7554;43.600;1.480;2023-10-09T09:23:59;10.00;;;4.80;;
14923;SDS011;7554;43.600;1.480;2023-10-09T09:26:34;10.27;;;4.70;;
14923;SDS011;7554;43.600;1.480;2023-10-09T09:29:10;8.67;;;4.47;;
14923;SDS011;7554;43.600;1.480;2023-10-09T09:31:38;11.23;;;4.93;;
14923;SDS011;7554;43.600;1.480;2023-10-09T09:34:19;12.07;;;4.80;;
14923;SDS011;7554;43.600;1.480;2023-10-09T09:36:51;14.57;;;4.00;;
14923;SDS011;7554;43.600;1.480;2023-10-09T09:39:23;13.70;;;4.17;;
14923;SDS011;7554;43.600;1.480;2023-10-09T09:41:55;12.20;;;4.53;;
14923;SDS011;7554;43.600;1.480;2023-10-09T09:44:30;11.10;;;4.50;;
14923;SDS011;7554;43.600;1.480;2023-10-09T09:46:59;15.30;;;3.70;;
14923;SDS011;7554;43.600;1.480;2023-10-09T09:49:30;11.80;;;3.70;;
14923;SDS011;7554;43.600;1.480;2023-10-09T09:52:01;9.43;;;4.50;;
14923;SDS011;7554;43.600;1.480;2023-10-09T09:54:35;8.53;;;3.70;;
14923;SDS011;7554;43.600;1.480;2023-10-09T09:57:03;8.73;;;3.60;;
14923;SDS011;7554;43.600;1.480;2023-10-09T09:59:37;8.60;;;3.67;;
14923;SDS011;7554;43.600;1.480;2023-10-09T10:02:16;8.43;;;3.53;;
14923;SDS011;7554;43.600;1.480;2023-10-09T10:04:53;6.53;;;3.50;;
14923;SDS011;7554;43.600;1.480;2023-10-09T10:07:23;8.30;;;3.93;;
14923;SDS011;7554;43.600;1.480;2023-10-09T10:09:54;8.37;;;3.90;;
14923;SDS011;7554;43.600;1.480;2023-10-09T10:18:30;5.97;;;3.60;;
14923;SDS011;7554;43.600;1.480;2023-10-09T10:21:11;9.67;;;3.50;;
14923;SDS011;7554;43.600;1.480;2023-10-09T10:23:43;13.27;;;4.03;;
14923;SDS011;7554;43.600;1.480;2023-10-09T10:26:19;7.87;;;4.07;;
14923;SDS011;7554;43.600;1.480;2023-10-09T10:31:52;9.97;;;3.90;;
14923;SDS011;7554;43.600;1.480;2023-10-09T10:34:25;9.97;;;4.27;;
14923;SDS011;7554;43.600;1.480;2023-10-09T10:37:16;12.00;;;4.00;;
14923;SDS011;7554;43.600;1.480;2023-10-09T10:39:49;7.10;;;4.03;;
14923;SDS011;7554;43.600;1.480;2023-10-09T10:42:24;6.83;;;3.60;;
14923;SDS011;7554;43.600;1.480;2023-10-09T10:45:00;10.60;;;4.57;;
14923;SDS011;7554;43.600;1.480;2023-10-09T10:47:40;9.17;;;3.90;;
14923;SDS011;7554;43.600;1.480;2023-10-09T10:50:08;6.53;;;4.20;;
14923;SDS011;7554;43.600;1.480;2023-10-09T10:53:08;10.60;;;4.20;;
14923;SDS011;7554;43.600;1.480;2023-10-09T10:55:53;5.87;;;4.10;;
14923;SDS011;7554;43.600;1.480;2023-10-09T10:58:22;11.07;;;4.40;;
14923;SDS011;7554;43.600;1.480;2023-10-09T11:01:00;7.00;;;3.80;;
14923;SDS011;7554;43.600;1.480;2023-10-09T11:03:40;5.90;;;3.97;;
14923;SDS011;7554;43.600;1.480;2023-10-09T11:06:27;5.27;;;3.80;;
14923;SDS011;7554;43.600;1.480;2023-10-09T11:09:04;8.07;;;4.13;;
14923;SDS011;7554;43.600;1.480;2023-10-09T11:11:46;7.03;;;4.00;;
14923;SDS011;7554;43.600;1.480;2023-10-09T11:14:15;5.73;;;3.40;;
14923;SDS011;7554;43.600;1.480;2023-10-09T11:16:48;8.60;;;4.00;;
14923;SDS011;7554;43.600;1.480;2023-10-09T11:19:22;5.30;;;3.60;;
14923;SDS011;7554;43.600;1.480;2023-10-09T11:21:56;9.63;;;3.80;;
14923;SDS011;7554;43.600;1.480;2023-10-09T11:24:48;6.47;;;4.20;;
14923;SDS011;7554;43.600;1.480;2023-10-09T11:27:39;6.23;;;4.00;;
14923;SDS011;7554;43.600;1.480;2023-10-09T11:30:15;6.03;;;4.17;;
14923;SDS011;7554;43.600;1.480;2023-10-09T11:33:03;8.93;;;3.77;;
14923;SDS011;7554;43.600;1.480;2023-10-09T11:35:30;10.35;;;3.88;;
14923;SDS011;7554;43.600;1.480;2023-10-09T11:38:00;9.97;;;4.57;;
14923;SDS011;7554;43.600;1.480;2023-10-09T11:40:47;6.00;;;4.10;;
14923;SDS011;7554;43.600;1.480;2023-10-09T11:43:44;8.73;;;4.10;;
14923;SDS011;7554;43.600;1.480;2023-10-09T11:46:19;6.83;;;3.93;;
14923;SDS011;7554;43.600;1.480;2023-10-09T11:49:07;13.23;;;4.40;;
14923;SDS011;7554;43.600;1.480;2023-10-09T11:52:09;7.97;;;4.03;;
14923;SDS011;7554;43.600;1.480;2023-10-09T11:54:50;7.72;;;3.97;;
14923;SDS011;7554;43.600;1.480;2023-10-09T11:57:24;9.82;;;4.32;;
14923;SDS011;7554;43.600;1.480;2023-10-09T11:59:57;8.43;;;4.83;;
14923;SDS011;7554;43.600;1.480;2023-10-09T12:02:25;5.30;;;3.70;;
14923;SDS011;7554;43.600;1.480;2023-10-09T12:04:53;7.57;;;3.75;;
14923;SDS011;7554;43.600;1.480;2023-10-09T12:07:23;9.53;;;4.07;;
14923;SDS011;7554;43.600;1.480;2023-10-09T12:09:52;7.17;;;3.77;;
14923;SDS011;7554;43.600;1.480;2023-10-09T12:12:21;5.53;;;4.20;;
14923;SDS011;7554;43.600;1.480;2023-10-09T12:14:52;7.80;;;4.38;;
14923;SDS011;7554;43.600;1.480;2023-10-09T12:17:20;8.33;;;4.17;;
14923;SDS011;7554;43.600;1.480;2023-10-09T12:19:51;5.57;;;3.72;;
14923;SDS011;7554;43.600;1.480;2023-10-09T12:22:18;7.67;;;4.07;;
14923;SDS011;7554;43.600;1.480;2023-10-09T12:24:46;6.60;;;4.22;;
14923;SDS011;7554;43.600;1.480;2023-10-09T12:27:14;7.82;;;4.07;;
14923;SDS011;7554;43.600;1.480;2023-10-09T12:29:46;5.53;;;3.60;;
14923;SDS011;7554;43.600;1.480;2023-10-09T12:32:14;7.82;;;4.80;;
14923;SDS011;7554;43.600;1.480;2023-10-09T12:34:44;9.57;;;3.93;;
14923;SDS011;7554;43.600;1.480;2023-10-09T12:37:15;5.38;;;4.15;;
14923;SDS011;7554;43.600;1.480;2023-10-09T12:39:46;7.00;;;3.70;;
14923;SDS011;7554;43.600;1.480;2023-10-09T12:42:13;7.55;;;4.28;;
14923;SDS011;7554;43.600;1.480;2023-10-09T12:44:42;6.25;;;4.18;;
14923;SDS011;7554;43.600;1.480;2023-10-09T12:47:11;8.93;;;3.90;;
14923;SDS011;7554;43.600;1.480;2023-10-09T12:49:38;5.43;;;3.60;;
14923;SDS011;7554;43.600;1.480;2023-10-09T12:52:06;9.70;;;3.70;;
14923;SDS011;7554;43.600;1.480;2023-10-09T12:54:41;10.27;;;3.70;;
14923;SDS011;7554;43.600;1.480;2023-10-09T12:57:11;7.00;;;3.78;;
14923;SDS011;7554;43.600;1.480;2023-10-09T12:59:40;6.55;;;3.60;;
14923;SDS011;7554;43.600;1.480;2023-10-09T13:02:12;7.50;;;4.50;;
14923;SDS011;7554;43.600;1.480;2023-10-09T13:04:53;7.95;;;4.55;;
14923;SDS011;7554;43.600;1.480;2023-10-09T13:07:20;4.97;;;3.70;;
14923;SDS011;7554;43.600;1.480;2023-10-09T13:09:48;6.77;;;3.53;;
14923;SDS011;7554;43.600;1.480;2023-10-09T13:12:33;4.75;;;3.40;;
14923;SDS011;7554;43.600;1.480;2023-10-09T13:15:04;10.93;;;3.97;;
14923;SDS011;7554;43.600;1.480;2023-10-09T13:17:36;8.27;;;4.07;;
14923;SDS011;7554;43.600;1.480;2023-10-09T13:20:03;6.07;;;4.03;;
14923;SDS011;7554;43.600;1.480;2023-10-09T13:22:38;7.13;;;3.80;;
14923;SDS011;7554;43.600;1.480;2023-10-09T13:25:06;7.32;;;3.50;;
14923;SDS011;7554;43.600;1.480;2023-10-09T13:27:40;6.00;;;3.50;;
14923;SDS011;7554;43.600;1.480;2023-10-09T13:30:15;4.93;;;3.47;;
14923;SDS011;7554;43.600;1.480;2023-10-09T13:32:49;7.78;;;3.78;;
14923;SDS011;7554;43.600;1.480;2023-10-09T13:35:16;5.05;;;3.38;;
14923;SDS011;7554;43.600;1.480;2023-10-09T13:37:44;5.07;;;3.97;;
14923;SDS011;7554;43.600;1.480;2023-10-09T13:40:20;5.53;;;3.47;;
14923;SDS011;7554;43.600;1.480;2023-10-09T13:42:54;6.55;;;3.50;;
14923;SDS011;7554;43.600;1.480;2023-10-09T13:45:24;24.00;;;6.93;;
14923;SDS011;7554;43.600;1.480;2023-10-09T13:47:55;8.65;;;3.88;;
14923;SDS011;7554;43.600;1.480;2023-10-09T13:50:26;4.90;;;3.75;;
14923;SDS011;7554;43.600;1.480;2023-10-09T13:52:58;7.60;;;3.30;;
14923;SDS011;7554;43.600;1.480;2023-10-09T13:55:25;6.53;;;3.63;;
14923;SDS011;7554;43.600;1.480;2023-10-09T13:57:56;6.15;;;3.60;;
14923;SDS011;7554;43.600;1.480;2023-10-09T14:00:24;5.35;;;3.42;;
14923;SDS011;7554;43.600;1.480;2023-10-09T14:03:08;6.78;;;3.40;;
14923;SDS011;7554;43.600;1.480;2023-10-09T14:05:39;7.07;;;3.15;;
14923;SDS011;7554;43.600;1.480;2023-10-09T14:08:18;9.52;;;3.47;;
14923;SDS011;7554;43.600;1.480;2023-10-09T14:10:48;9.25;;;3.72;;
14923;SDS011;7554;43.600;1.480;2023-10-09T14:13:16;6.40;;;3.17;;
14923;SDS011;7554;43.600;1.480;2023-10-09T14:15:51;6.95;;;3.17;;
14923;SDS011;7554;43.600;1.480;2023-10-09T14:18:21;7.80;;;3.60;;
14923;SDS011;7554;43.600;1.480;2023-10-09T14:20:49;8.73;;;4.07;;
14923;SDS011;7554;43.600;1.480;2023-10-09T14:23:21;4.68;;;3.42;;
14923;SDS011;7554;43.600;1.480;2023-10-09T14:25:49;8.00;;;3.78;;
14923;SDS011;7554;43.600;1.480;2023-10-09T14:28:21;8.27;;;3.90;;
14923;SDS011;7554;43.600;1.480;2023-10-09T14:30:53;7.38;;;3.65;;
14923;SDS011;7554;43.600;1.480;2023-10-09T14:33:25;7.70;;;3.40;;
14923;SDS011;7554;43.600;1.480;2023-10-09T14:36:00;5.40;;;3.40;;
14923;SDS011;7554;43.600;1.480;2023-10-09T14:38:27;6.72;;;3.70;;
14923;SDS011;7554;43.600;1.480;2023-10-09T14:40:58;6.45;;;3.47;;
14923;SDS011;7554;43.600;1.480;2023-10-09T14:43:25;5.22;;;3.70;;
14923;SDS011;7554;43.600;1.480;2023-10-09T14:45:58;10.00;;;4.40;;
14923;SDS011;7554;43.600;1.480;2023-10-09T14:48:27;7.78;;;3.38;;
14923;SDS011;7554;43.600;1.480;2023-10-09T14:50:54;8.07;;;3.90;;
14923;SDS011;7554;43.600;1.480;2023-10-09T14:53:29;7.00;;;3.25;;
14923;SDS011;7554;43.600;1.480;2023-10-09T14:55:59;4.93;;;3.20;;
14923;SDS011;7554;43.600;1.480;2023-10-09T14:58:28;8.40;;;3.55;;
14923;SDS011;7554;43.600;1.480;2023-10-09T15:01:07;4.85;;;2.90;;
14923;SDS011;7554;43.600;1.480;2023-10-09T15:03:41;8.52;;;3.13;;
14923;SDS011;7554;43.600;1.480;2023-10-09T15:06:12;7.30;;;3.50;;
14923;SDS011;7554;43.600;1.480;2023-10-09T15:08:40;6.72;;;3.20;;
14923;SDS011;7554;43.600;1.480;2023-10-09T15:11:07;7.20;;;3.20;;
14923;SDS011;7554;43.600;1.480;2023-10-09T15:13:34;6.03;;;3.08;;
14923;SDS011;7554;43.600;1.480;2023-10-09T15:16:04;5.13;;;3.28;;
14923;SDS011;7554;43.600;1.480;2023-10-09T15:18:32;10.82;;;3.78;;
14923;SDS011;7554;43.600;1.480;2023-10-09T15:21:04;8.07;;;3.42;;
14923;SDS011;7554;43.600;1.480;2023-10-09T15:23:31;8.80;;;3.28;;
14923;SDS011;7554;43.600;1.480;2023-10-09T15:26:01;7.40;;;3.65;;
14923;SDS011;7554;43.600;1.480;2023-10-09T15:28:31;8.18;;;3.60;;
14923;SDS011;7554;43.600;1.480;2023-10-09T15:30:59;6.50;;;3.28;;
14923;SDS011;7554;43.600;1.480;2023-10-09T15:33:26;7.80;;;3.00;;
14923;SDS011;7554;43.600;1.480;2023-10-09T15:35:56;9.40;;;2.97;;
14923;SDS011;7554;43.600;1.480;2023-10-09T15:38:25;9.10;;;3.55;;
14923;SDS011;7554;43.600;1.480;2023-10-09T15:40:54;8.93;;;3.58;;
14923;SDS011;7554;43.600;1.480;2023-10-09T15:43:21;7.40;;;3.72;;
14923;SDS011;7554;43.600;1.480;2023-10-09T15:45:50;8.48;;;3.70;;
14923;SDS011;7554;43.600;1.480;2023-10-09T15:48:17;8.55;;;3.60;;
14923;SDS011;7554;43.600;1.480;2023-10-09T15:50:46;8.50;;;3.30;;
14923;SDS011;7554;43.600;1.480;2023-10-09T15:53:16;7.55;;;3.28;;